Time;durP1;ratioP1;P1;durP2;ratioP2;P2;SDS_P1;SDS_P2;PMS_P1;PMS_P2;Temp;Humidity;BMP_temperature;BMP_pressure;BME280_temperature;BME280_humidity;BME280_pressure;Samples;Min_cycle;Max_cycle;Signal;HPM_P1;HPM_P2
2022/08/25 00:00:32;;;;;;;;;;;25.60;99.90;;;;;;8451699;28;20345;-73
2022/08/25 00:04:34;;;;;;;;;;;25.60;99.90;;;;;;8440527;27;20381;-73
2022/08/25 00:08:37;;;;;;;;;;;25.60;99.90;;;;;;8430712;28;19928;-73
2022/08/25 00:12:39;;;;;;;;;;;25.60;99.90;;;;;;8425067;28;19920;-73
2022/08/25 00:16:41;;;;;;;;;;;25.50;99.90;;;;;;8452946;28;20297;-73
2022/08/25 00:20:42;;;;;;;;;;;25.50;99.90;;;;;;8449248;28;19928;-73
2022/08/25 00:24:49;;;;;;;;;;;25.50;99.90;;;;;;8443169;28;20286;-73
2022/08/25 00:34:01;;;;;;;;;;;25.40;99.90;;;;;;8444977;28;20394;-73
2022/08/25 00:38:02;;;;;;;;;;;25.40;99.90;;;;;;8432907;28;19920;-73
2022/08/25 00:42:05;;;;;;;;;;;25.30;99.90;;;;;;8444699;27;19927;-73
2022/08/25 00:46:14;;;;;;;;;;;25.30;99.90;;;;;;8446351;28;19935;-73
2022/08/25 00:50:18;;;;;;;;;;;25.30;99.90;;;;;;8445774;28;19923;-73
2022/08/25 00:54:22;;;;;;;;;;;25.20;99.90;;;;;;8433693;28;19927;-73
2022/08/25 00:58:26;;;;;;;;;;;25.20;99.90;;;;;;8422625;27;20397;-73
2022/08/25 01:02:27;;;;;;;;;;;25.10;99.90;;;;;;8435480;27;19926;-73
2022/08/25 01:06:31;;;;;;;;;;;25.10;99.90;;;;;;8442908;28;19923;-73
2022/08/25 01:10:34;;;;;;;;;;;25.10;99.90;;;;;;8451546;28;19919;-72
2022/08/25 01:14:36;;;;;;;;;;;25.00;99.90;;;;;;8444794;28;20408;-73
2022/08/25 01:18:46;;;;;;;;;;;24.90;99.90;;;;;;8448036;28;19924;-73
2022/08/25 01:22:49;;;;;;;;;;;24.90;99.90;;;;;;8434998;28;20382;-73
2022/08/25 01:26:51;;;;;;;;;;;24.80;99.90;;;;;;8438648;27;20370;-73
2022/08/25 01:30:53;;;;;;;;;;;24.80;99.90;;;;;;8441889;27;20290;-72
2022/08/25 01:34:54;;;;;;;;;;;24.70;99.90;;;;;;8429919;28;20011;-72
2022/08/25 01:38:56;;;;;;;;;;;24.70;99.90;;;;;;8438299;28;19927;-73
2022/08/25 01:43:13;;;;;;;;;;;24.70;99.90;;;;;;8444471;28;19920;-73
2022/08/25 01:47:15;;;;;;;;;;;24.70;99.90;;;;;;8439526;28;19928;-74
2022/08/25 01:51:18;;;;;;;;;;;24.60;99.90;;;;;;8439852;28;20303;-73
2022/08/25 01:55:20;;;;;;;;;;;24.60;99.90;;;;;;8444145;28;19920;-73
2022/08/25 01:59:22;;;;;;;;;;;24.50;99.90;;;;;;8445109;28;19926;-72
2022/08/25 02:03:24;;;;;;;;;;;24.50;99.90;;;;;;8437160;28;19942;-73
2022/08/25 02:07:26;;;;;;;;;;;24.40;99.90;;;;;;8428406;28;19935;-73
2022/08/25 02:11:28;;;;;;;;;;;24.40;99.90;;;;;;8455293;28;19972;-73
2022/08/25 02:15:30;;;;;;;;;;;24.30;99.90;;;;;;8433243;28;19923;-72
2022/08/25 02:19:31;;;;;;;;;;;24.30;99.90;;;;;;8440134;28;20227;-72
2022/08/25 02:23:34;;;;;;;;;;;24.20;99.90;;;;;;8448058;28;19926;-72
2022/08/25 02:27:35;;;;;;;;;;;24.20;99.90;;;;;;8443824;27;19928;-73
2022/08/25 02:31:38;;;;;;;;;;;24.20;99.90;;;;;;8448790;27;19920;-73
2022/08/25 02:35:39;;;;;;;;;;;24.20;99.90;;;;;;8425847;28;19946;-73
2022/08/25 02:39:41;;;;;;;;;;;24.20;99.90;;;;;;8446626;28;19920;-73
2022/08/25 02:43:43;;;;;;;;;;;24.20;99.90;;;;;;8452840;28;19919;-72
2022/08/25 02:47:45;;;;;;;;;;;24.20;99.90;;;;;;8455094;28;19920;-72
2022/08/25 02:51:46;;;;;;;;;;;24.20;99.90;;;;;;8427744;28;19931;-72
2022/08/25 02:55:48;;;;;;;;;;;24.20;99.90;;;;;;8438224;28;19923;-73
2022/08/25 02:59:50;;;;;;;;;;;24.20;99.90;;;;;;8448403;27;19927;-72
2022/08/25 03:03:52;;;;;;;;;;;24.20;99.90;;;;;;8445962;28;20305;-73
2022/08/25 03:07:53;;;;;;;;;;;24.20;99.90;;;;;;8447735;28;19924;-73
2022/08/25 03:11:55;;;;;;;;;;;24.20;99.90;;;;;;8441362;28;20294;-73
2022/08/25 03:15:57;;;;;;;;;;;24.20;99.90;;;;;;8437827;28;19920;-72
2022/08/25 03:19:59;;;;;;;;;;;24.20;99.90;;;;;;8445186;28;19920;-72
2022/08/25 03:24:01;;;;;;;;;;;24.20;99.90;;;;;;8442617;28;20013;-72
2022/08/25 03:28:03;;;;;;;;;;;24.20;99.90;;;;;;8455613;27;20394;-72
2022/08/25 03:32:04;;;;;;;;;;;24.20;99.90;;;;;;8440671;28;19924;-72
2022/08/25 03:36:07;;;;;;;;;;;24.20;99.90;;;;;;8434855;27;19920;-72
2022/08/25 03:40:10;;;;;;;;;;;24.10;99.90;;;;;;8449279;28;19924;-72
2022/08/25 03:44:16;;;;;;;;;;;24.10;99.90;;;;;;8422086;28;19927;-73
2022/08/25 03:48:18;;;;;;;;;;;24.10;99.90;;;;;;8444330;28;19920;-73
2022/08/25 03:52:20;;;;;;;;;;;24.10;99.90;;;;;;8431676;28;19920;-73
2022/08/25 03:56:21;;;;;;;;;;;24.00;99.90;;;;;;8448500;28;19919;-73
2022/08/25 04:00:23;;;;;;;;;;;24.00;99.90;;;;;;8426585;28;20243;-73
2022/08/25 04:04:25;;;;;;;;;;;24.00;99.90;;;;;;8442641;28;20401;-72
2022/08/25 04:08:26;;;;;;;;;;;24.00;99.90;;;;;;8435873;28;20310;-73
2022/08/25 04:12:28;;;;;;;;;;;24.00;99.90;;;;;;8441756;28;20259;-72
2022/08/25 04:21:27;;;;;;;;;;;23.90;99.90;;;;;;8453143;28;20374;-72
2022/08/25 04:25:30;;;;;;;;;;;23.80;99.90;;;;;;8446130;27;19935;-73
2022/08/25 04:29:31;;;;;;;;;;;23.80;99.90;;;;;;8450934;28;19923;-72
2022/08/25 04:33:34;;;;;;;;;;;23.80;99.90;;;;;;8450869;28;19935;-72
2022/08/25 04:37:35;;;;;;;;;;;23.70;99.90;;;;;;8445147;28;19920;-72
2022/08/25 04:41:38;;;;;;;;;;;23.70;99.90;;;;;;8456691;28;19920;-72
2022/08/25 04:45:39;;;;;;;;;;;23.60;99.90;;;;;;8457964;28;19942;-72
2022/08/25 04:49:42;;;;;;;;;;;23.60;99.90;;;;;;8444214;28;19927;-72
2022/08/25 04:53:44;;;;;;;;;;;23.50;99.90;;;;;;8355415;28;19928;-73
2022/08/25 04:57:45;;;;;;;;;;;23.50;99.90;;;;;;8307604;28;19920;-73
2022/08/25 05:01:47;;;;;;;;;;;23.50;99.90;;;;;;8352149;28;19921;-72
2022/08/25 05:05:51;;;;;;;;;;;23.50;99.90;;;;;;8281503;28;20314;-73
2022/08/25 05:09:52;;;;;;;;;;;23.50;99.90;;;;;;8340052;28;19921;-72
2022/08/25 05:24:02;;;;;;;;;;;23.50;99.90;;;;;;8301411;28;19962;-73
2022/08/25 05:28:04;;;;;;;;;;;23.50;99.90;;;;;;8289499;28;20390;-73
2022/08/25 05:32:06;;;;;;;;;;;23.50;99.90;;;;;;8297263;28;19921;-72
2022/08/25 05:36:09;;;;;;;;;;;23.40;99.90;;;;;;8282413;28;19978;-72
2022/08/25 05:40:11;;;;;;;;;;;23.40;99.90;;;;;;8294851;28;19944;-72
2022/08/25 05:44:13;;;;;;;;;;;23.50;99.90;;;;;;8287853;28;20365;-72
2022/08/25 05:48:19;;;;;;;;;;;23.50;99.90;;;;;;8294381;28;19925;-72
2022/08/25 05:52:21;;;;;;;;;;;23.60;99.90;;;;;;8336944;28;19931;-72
2022/08/25 05:56:25;;;;;;;;;;;23.60;99.90;;;;;;8438167;28;20125;-72
2022/08/25 06:00:26;;;;;;;;;;;23.70;99.90;;;;;;8444630;28;20274;-72
2022/08/25 06:04:28;;;;;;;;;;;23.70;99.90;;;;;;8445848;28;19924;-73
2022/08/25 06:08:32;;;;;;;;;;;23.80;99.90;;;;;;8451897;28;19935;-73
2022/08/25 06:12:35;;;;;;;;;;;23.80;99.90;;;;;;8461549;28;19923;-73
2022/08/25 06:16:37;;;;;;;;;;;23.80;99.90;;;;;;8450060;28;20375;-72
2022/08/25 06:20:39;;;;;;;;;;;23.80;99.90;;;;;;8451174;28;19931;-72
2022/08/25 06:24:41;;;;;;;;;;;23.80;99.90;;;;;;8450873;28;19924;-73
2022/08/25 06:28:42;;;;;;;;;;;23.80;99.90;;;;;;8434149;28;19923;-73
2022/08/25 06:32:44;;;;;;;;;;;23.80;99.90;;;;;;8456452;28;19924;-72
2022/08/25 06:36:46;;;;;;;;;;;23.80;99.90;;;;;;8455777;28;19924;-72
2022/08/25 06:40:49;;;;;;;;;;;23.80;99.90;;;;;;8437417;28;19931;-72
2022/08/25 06:44:51;;;;;;;;;;;23.80;99.90;;;;;;8457361;28;19932;-74
2022/08/25 06:48:53;;;;;;;;;;;23.80;99.90;;;;;;8440379;28;19928;-73
2022/08/25 06:52:55;;;;;;;;;;;23.80;99.90;;;;;;8384953;28;19930;-72
2022/08/25 06:56:57;;;;;;;;;;;23.90;99.90;;;;;;8362902;28;19921;-72
2022/08/25 07:01:09;;;;;;;;;;;24.00;99.90;;;;;;8302500;28;19922;-73
2022/08/25 07:05:15;;;;;;;;;;;24.10;99.90;;;;;;8283506;28;19975;-73
2022/08/25 07:09:27;;;;;;;;;;;24.20;99.90;;;;;;8298000;28;19974;-73
2022/08/25 07:13:30;;;;;;;;;;;24.30;99.90;;;;;;8288983;28;20095;-73
2022/08/25 07:17:31;;;;;;;;;;;24.40;99.90;;;;;;8335584;28;19932;-73
2022/08/25 07:21:34;;;;;;;;;;;24.50;99.90;;;;;;8285344;28;19921;-73
2022/08/25 07:25:36;;;;;;;;;;;24.50;99.90;;;;;;8357355;28;20272;-73
2022/08/25 07:29:38;;;;;;;;;;;24.50;99.90;;;;;;8282777;28;19984;-73
2022/08/25 07:35:13;;;;;;;;;;;24.60;99.90;;;;;;8285338;28;19921;-73
2022/08/25 07:38:05;;;;;;;;;;;24.60;99.90;;;;;;8293063;28;20329;-72
2022/08/25 07:42:07;;;;;;;;;;;24.70;99.90;;;;;;8299815;28;20383;-73
2022/08/25 07:46:12;;;;;;;;;;;24.80;99.90;;;;;;8359844;28;19965;-73
2022/08/25 07:50:14;;;;;;;;;;;24.90;99.90;;;;;;8363666;28;19962;-73
2022/08/25 07:54:16;;;;;;;;;;;25.00;99.90;;;;;;8299524;28;19940;-73
2022/08/25 07:58:17;;;;;;;;;;;25.10;99.90;;;;;;8296311;28;20411;-73
2022/08/25 08:02:19;;;;;;;;;;;25.20;99.90;;;;;;8293386;28;19945;-73
2022/08/25 08:06:22;;;;;;;;;;;25.30;99.90;;;;;;8319765;28;19929;-73
2022/08/25 08:10:24;;;;;;;;;;;25.50;99.90;;;;;;8304297;28;19922;-73
2022/08/25 08:14:46;;;;;;;;;;;25.60;99.90;;;;;;8291077;28;19921;-73
2022/08/25 08:18:48;;;;;;;;;;;25.70;99.90;;;;;;8301594;28;20221;-73
2022/08/25 08:22:49;;;;;;;;;;;25.80;99.90;;;;;;8295710;28;19929;-74
2022/08/25 08:26:51;;;;;;;;;;;25.90;99.90;;;;;;8292109;28;19925;-73
2022/08/25 08:30:59;;;;;;;;;;;26.00;99.90;;;;;;8322873;28;19921;-74
2022/08/25 08:35:01;;;;;;;;;;;26.00;99.90;;;;;;8294505;28;20214;-74
2022/08/25 08:39:02;;;;;;;;;;;26.10;99.90;;;;;;8354880;28;19943;-73
2022/08/25 08:43:05;;;;;;;;;;;26.20;99.90;;;;;;8298700;28;20291;-73
2022/08/25 08:47:26;;;;;;;;;;;26.30;99.90;;;;;;8300246;28;20288;-73
2022/08/25 08:51:31;;;;;;;;;;;26.40;99.90;;;;;;8311612;28;20245;-73
2022/08/25 08:56:03;;;;;;;;;;;26.50;99.90;;;;;;8456288;28;19958;-73
2022/08/25 09:00:05;;;;;;;;;;;26.60;99.90;;;;;;8435948;27;19919;-73
2022/08/25 09:04:09;;;;;;;;;;;26.70;99.90;;;;;;8430819;28;19945;-74
2022/08/25 09:08:12;;;;;;;;;;;26.80;99.90;;;;;;8452266;28;19935;-73
2022/08/25 09:12:25;;;;;;;;;;;26.90;99.90;;;;;;8439965;28;19926;-73
2022/08/25 09:21:01;;;;;;;;;;;27.20;99.90;;;;;;8447674;28;19920;-73
2022/08/25 09:25:03;;;;;;;;;;;27.20;99.90;;;;;;8455090;28;19919;-73
2022/08/25 09:29:11;;;;;;;;;;;27.30;99.90;;;;;;8457435;27;19981;-73
2022/08/25 09:33:20;;;;;;;;;;;27.40;99.90;;;;;;8441735;28;21902;-73
2022/08/25 09:37:22;;;;;;;;;;;27.50;99.90;;;;;;8440143;28;19931;-73
2022/08/25 09:41:38;;;;;;;;;;;27.60;99.90;;;;;;8448247;28;19939;-73
2022/08/25 09:45:44;;;;;;;;;;;27.70;99.90;;;;;;8446966;28;19930;-73
2022/08/25 09:49:48;;;;;;;;;;;27.80;99.90;;;;;;8433611;28;19919;-73
2022/08/25 09:53:52;;;;;;;;;;;27.90;99.90;;;;;;8443911;28;20293;-73
2022/08/25 09:57:55;;;;;;;;;;;28.00;99.90;;;;;;8448856;28;20288;-73
2022/08/25 10:01:58;;;;;;;;;;;28.10;99.90;;;;;;8443573;28;20387;-73
2022/08/25 10:06:03;;;;;;;;;;;28.20;99.90;;;;;;8450324;28;19928;-74
2022/08/25 10:10:17;;;;;;;;;;;28.20;99.90;;;;;;8445736;28;24085;-73
2022/08/25 10:14:24;;;;;;;;;;;28.30;99.90;;;;;;8448303;28;19923;-73
2022/08/25 10:18:28;;;;;;;;;;;28.40;99.90;;;;;;8453579;28;24093;-72
2022/08/25 10:22:31;;;;;;;;;;;28.60;99.90;;;;;;8459456;28;20355;-73
2022/08/25 10:26:32;;;;;;;;;;;28.80;99.90;;;;;;8441613;28;25064;-73
2022/08/25 10:30:44;;;;;;;;;;;29.00;99.90;;;;;;8449263;27;19926;-73
2022/08/25 10:34:57;;;;;;;;;;;29.10;99.90;;;;;;8453976;28;20398;-73
2022/08/25 10:39:00;;;;;;;;;;;29.20;99.90;;;;;;8449792;28;20447;-74
2022/08/25 10:43:05;;;;;;;;;;;29.30;99.90;;;;;;8459985;28;19919;-73
2022/08/25 10:47:21;;;;;;;;;;;29.40;99.90;;;;;;8462657;28;20244;-73
2022/08/25 10:51:28;;;;;;;;;;;29.40;99.90;;;;;;8452210;28;19923;-73
2022/08/25 10:55:43;;;;;;;;;;;29.50;99.90;;;;;;8301615;28;20066;-73
2022/08/25 10:59:48;;;;;;;;;;;29.50;99.90;;;;;;8284561;28;19926;-73
2022/08/25 11:03:56;;;;;;;;;;;29.50;99.90;;;;;;8294814;28;20056;-74
2022/08/25 11:08:24;;;;;;;;;;;29.50;99.90;;;;;;8352409;28;19973;-73
2022/08/25 11:12:29;;;;;;;;;;;29.50;99.90;;;;;;8286427;28;19932;-73
2022/08/25 11:16:32;;;;;;;;;;;29.60;99.90;;;;;;8286446;28;19936;-72
2022/08/25 11:20:47;;;;;;;;;;;29.70;99.90;;;;;;8288531;28;19925;-73
2022/08/25 11:25:10;;;;;;;;;;;29.80;99.90;;;;;;8296182;28;19925;-73
2022/08/25 11:29:13;;;;;;;;;;;29.90;99.90;;;;;;8287828;28;19921;-73
2022/08/25 11:33:17;;;;;;;;;;;30.00;99.90;;;;;;8293145;28;20274;-73
2022/08/25 11:37:24;;;;;;;;;;;30.00;99.90;;;;;;8356677;28;19966;-73
2022/08/25 11:41:28;;;;;;;;;;;30.10;99.90;;;;;;8365051;28;19938;-73
2022/08/25 11:45:50;;;;;;;;;;;30.10;99.90;;;;;;8303716;28;19932;-75
2022/08/25 11:50:00;;;;;;;;;;;30.20;99.90;;;;;;8299680;28;19925;-74
2022/08/25 11:54:13;;;;;;;;;;;30.20;99.90;;;;;;8358189;28;19921;-74
2022/08/25 11:58:27;;;;;;;;;;;30.20;99.90;;;;;;8291445;28;19921;-73
2022/08/25 12:02:35;;;;;;;;;;;30.10;99.90;;;;;;8295010;28;19921;-73
2022/08/25 12:06:56;;;;;;;;;;;30.10;99.90;;;;;;8279478;28;19946;-73
2022/08/25 12:10:58;;;;;;;;;;;30.20;99.90;;;;;;8283137;28;25093;-74
2022/08/25 12:15:18;;;;;;;;;;;30.40;99.90;;;;;;8289623;28;19922;-74
2022/08/25 12:19:29;;;;;;;;;;;30.50;99.90;;;;;;8290148;28;19936;-73
2022/08/25 12:23:34;;;;;;;;;;;30.70;99.90;;;;;;8282675;28;25053;-73
2022/08/25 12:27:47;;;;;;;;;;;30.90;99.90;;;;;;8289512;28;19921;-73
2022/08/25 12:31:58;;;;;;;;;;;30.90;99.90;;;;;;8353101;28;19937;-73
2022/08/25 12:36:07;;;;;;;;;;;31.00;99.90;;;;;;8302252;28;20352;-73
2022/08/25 12:40:21;;;;;;;;;;;31.10;99.90;;;;;;8329444;28;20394;-73
2022/08/25 12:44:32;;;;;;;;;;;31.10;99.90;;;;;;8297652;28;24073;-73
2022/08/25 12:48:34;;;;;;;;;;;31.10;99.90;;;;;;8290951;28;19928;-73
2022/08/25 12:52:36;;;;;;;;;;;31.10;99.90;;;;;;8288248;28;19922;-73
2022/08/25 12:56:43;;;;;;;;;;;31.10;99.90;;;;;;8357677;28;20066;-73
2022/08/25 13:00:54;;;;;;;;;;;31.20;99.90;;;;;;8361241;28;19930;-73
2022/08/25 13:05:17;;;;;;;;;;;31.20;99.80;;;;;;8346135;28;24080;-73
2022/08/25 13:09:21;;;;;;;;;;;31.20;99.50;;;;;;8290683;28;24138;-74
2022/08/25 13:13:35;;;;;;;;;;;31.20;99.10;;;;;;8283599;28;25119;-73
2022/08/25 13:17:37;;;;;;;;;;;31.30;98.90;;;;;;8294899;28;19929;-73
2022/08/25 13:21:40;;;;;;;;;;;31.30;99.10;;;;;;8297606;28;19921;-73
2022/08/25 13:25:47;;;;;;;;;;;31.30;98.50;;;;;;8351624;28;19952;-73
2022/08/25 13:29:54;;;;;;;;;;;31.30;98.50;;;;;;8348375;28;20376;-74
2022/08/25 13:33:57;;;;;;;;;;;31.30;98.40;;;;;;8278231;28;25118;-73
2022/08/25 13:38:11;;;;;;;;;;;31.40;98.40;;;;;;8358682;28;24076;-73
2022/08/25 13:42:15;;;;;;;;;;;31.50;98.40;;;;;;8287889;28;19944;-73
2022/08/25 13:46:17;;;;;;;;;;;31.50;98.00;;;;;;8282474;28;19922;-73
2022/08/25 13:50:25;;;;;;;;;;;31.50;97.90;;;;;;8357146;28;19922;-73
2022/08/25 13:54:33;;;;;;;;;;;31.50;97.80;;;;;;8417997;28;25064;-73
2022/08/25 13:58:42;;;;;;;;;;;31.50;97.60;;;;;;8454726;28;19965;-73
2022/08/25 14:02:48;;;;;;;;;;;31.50;97.50;;;;;;8454641;28;19942;-74
2022/08/25 14:07:09;;;;;;;;;;;31.60;97.30;;;;;;8440072;28;20394;-74
2022/08/25 14:11:11;;;;;;;;;;;31.70;97.30;;;;;;8454954;28;19924;-74
2022/08/25 14:15:15;;;;;;;;;;;31.70;96.30;;;;;;8455200;28;25071;-73
2022/08/25 14:19:18;;;;;;;;;;;31.80;96.40;;;;;;8433843;28;19927;-73
2022/08/25 14:23:23;;;;;;;;;;;31.90;96.30;;;;;;8447105;28;19930;-73
2022/08/25 14:27:24;;;;;;;;;;;31.90;96.20;;;;;;8431329;28;19935;-73
2022/08/25 14:31:28;;;;;;;;;;;31.90;95.90;;;;;;8435988;28;20631;-73
2022/08/25 14:35:29;;;;;;;;;;;31.80;95.60;;;;;;8432766;28;20392;-73
2022/08/25 14:39:31;;;;;;;;;;;31.80;95.50;;;;;;8435252;28;24111;-74
2022/08/25 14:43:33;;;;;;;;;;;31.80;95.30;;;;;;8452638;28;19920;-74
2022/08/25 14:47:35;;;;;;;;;;;31.80;95.50;;;;;;8444988;28;19923;-73
2022/08/25 14:51:38;;;;;;;;;;;31.80;95.60;;;;;;8433099;28;19921;-74
2022/08/25 14:55:40;;;;;;;;;;;31.80;96.10;;;;;;8345958;28;19921;-73
2022/08/25 14:59:41;;;;;;;;;;;31.70;95.80;;;;;;8273456;28;19930;-72
2022/08/25 15:03:45;;;;;;;;;;;31.70;95.80;;;;;;8278459;28;19928;-73
2022/08/25 15:12:08;;;;;;;;;;;31.80;95.90;;;;;;8285466;28;19921;-73
2022/08/25 15:16:13;;;;;;;;;;;32.00;95.90;;;;;;8368484;27;19921;-73
2022/08/25 15:20:15;;;;;;;;;;;32.20;95.90;;;;;;8313686;28;19921;-74
2022/08/25 15:24:17;;;;;;;;;;;32.40;95.70;;;;;;8309071;28;19936;-73
2022/08/25 15:28:20;;;;;;;;;;;32.70;95.50;;;;;;8294846;28;19921;-74
2022/08/25 15:32:23;;;;;;;;;;;32.90;95.80;;;;;;8311464;28;20303;-74
2022/08/25 15:36:25;;;;;;;;;;;33.00;95.40;;;;;;8304631;28;19921;-74
2022/08/25 15:40:27;;;;;;;;;;;33.10;94.40;;;;;;8308137;28;19932;-74
2022/08/25 15:44:30;;;;;;;;;;;33.30;93.40;;;;;;8286491;28;20383;-74
2022/08/25 15:48:32;;;;;;;;;;;33.60;94.00;;;;;;8289078;28;19925;-74
2022/08/25 15:52:34;;;;;;;;;;;33.90;93.80;;;;;;8345873;28;19920;-74
2022/08/25 15:56:48;;;;;;;;;;;34.30;94.50;;;;;;8458369;28;19920;-74
2022/08/25 16:00:50;;;;;;;;;;;34.70;95.20;;;;;;8451612;27;19920;-74
2022/08/25 16:04:56;;;;;;;;;;;35.00;95.70;;;;;;8458014;28;20379;-74
2022/08/25 16:08:59;;;;;;;;;;;35.10;96.10;;;;;;8453005;28;20029;-74
2022/08/25 16:13:01;;;;;;;;;;;35.20;96.10;;;;;;8430164;28;20001;-75
2022/08/25 16:17:04;;;;;;;;;;;35.40;95.80;;;;;;8434693;28;19924;-73
2022/08/25 16:21:13;;;;;;;;;;;35.50;95.70;;;;;;8419213;28;19939;-74
2022/08/25 16:25:14;;;;;;;;;;;35.40;95.70;;;;;;8415181;28;20001;-74
2022/08/25 16:29:17;;;;;;;;;;;35.30;96.20;;;;;;8423010;28;19920;-74
2022/08/25 16:33:18;;;;;;;;;;;35.20;95.90;;;;;;8431007;27;19923;-74
2022/08/25 16:37:20;;;;;;;;;;;35.10;95.90;;;;;;8430696;28;19923;-73
2022/08/25 16:41:24;;;;;;;;;;;34.90;96.30;;;;;;8412611;28;19923;-74
2022/08/25 16:45:26;;;;;;;;;;;34.50;96.70;;;;;;8434862;28;19926;-73
2022/08/25 16:49:27;;;;;;;;;;;34.00;97.00;;;;;;8418367;28;19924;-73
2022/08/25 16:58:33;;;;;;;;;;;33.40;98.10;;;;;;8426181;28;19967;-73
2022/08/25 17:02:34;;;;;;;;;;;33.20;97.90;;;;;;8429836;28;20382;-73
2022/08/25 17:06:38;;;;;;;;;;;33.10;97.80;;;;;;8431398;28;19924;-73
2022/08/25 17:20:47;;;;;;;;;;;32.70;96.00;;;;;;8426466;28;19915;-74
2022/08/25 17:24:49;;;;;;;;;;;32.60;95.90;;;;;;8423097;28;19919;-73
2022/08/25 17:28:59;;;;;;;;;;;32.30;95.40;;;;;;8416206;28;19920;-73
2022/08/25 17:33:02;;;;;;;;;;;32.10;95.10;;;;;;8426340;28;20344;-73
2022/08/25 17:37:04;;;;;;;;;;;31.80;94.90;;;;;;8416393;28;19928;-73
2022/08/25 17:41:06;;;;;;;;;;;31.60;94.80;;;;;;8412992;28;20610;-73
2022/08/25 17:45:08;;;;;;;;;;;31.30;94.70;;;;;;8425232;28;19927;-73
2022/08/25 17:49:10;;;;;;;;;;;31.10;94.70;;;;;;8424655;28;19920;-73
2022/08/25 17:53:12;;;;;;;;;;;31.00;94.80;;;;;;8421351;28;19930;-73
2022/08/25 17:57:14;;;;;;;;;;;30.80;94.80;;;;;;8421178;28;19920;-73
2022/08/25 18:01:21;;;;;;;;;;;30.70;94.80;;;;;;8409065;28;19982;-73
2022/08/25 18:05:24;;;;;;;;;;;30.50;94.80;;;;;;8425486;28;19924;-73
2022/08/25 18:09:26;;;;;;;;;;;30.30;94.80;;;;;;8431710;28;20390;-74
2022/08/25 18:13:27;;;;;;;;;;;30.20;94.90;;;;;;8415659;28;19924;-73
2022/08/25 18:17:29;;;;;;;;;;;30.10;95.10;;;;;;8407957;28;19974;-73
2022/08/25 18:21:30;;;;;;;;;;;30.00;95.20;;;;;;8424580;28;19920;-73
2022/08/25 18:25:32;;;;;;;;;;;29.90;95.40;;;;;;8426908;28;19931;-73
2022/08/25 18:29:34;;;;;;;;;;;29.70;95.90;;;;;;8411749;28;19943;-72
2022/08/25 18:33:36;;;;;;;;;;;29.60;96.00;;;;;;8418675;28;19924;-73
2022/08/25 18:42:00;;;;;;;;;;;29.30;96.50;;;;;;8418051;28;19932;-72
2022/08/25 18:46:03;;;;;;;;;;;29.10;96.90;;;;;;8419862;28;20715;-72
2022/08/25 18:50:05;;;;;;;;;;;28.90;97.20;;;;;;8410515;28;19927;-72
2022/08/25 18:54:07;;;;;;;;;;;28.80;97.40;;;;;;8406762;28;20276;-73
2022/08/25 18:58:09;;;;;;;;;;;28.80;97.50;;;;;;8431813;28;19935;-73
2022/08/25 19:02:11;;;;;;;;;;;28.70;97.70;;;;;;8416801;28;19923;-72
2022/08/25 19:06:13;;;;;;;;;;;28.60;97.90;;;;;;8417644;27;19989;-73
2022/08/25 19:10:15;;;;;;;;;;;28.50;98.00;;;;;;8418230;28;19962;-72
2022/08/25 19:14:17;;;;;;;;;;;28.40;98.20;;;;;;8413729;28;19928;-73
2022/08/25 19:18:19;;;;;;;;;;;28.30;98.50;;;;;;8438407;28;19920;-72
2022/08/25 19:22:27;;;;;;;;;;;28.10;98.80;;;;;;8431058;28;20018;-72
2022/08/25 19:26:42;;;;;;;;;;;28.00;99.00;;;;;;8438360;28;19938;-72
2022/08/25 19:30:45;;;;;;;;;;;27.90;99.20;;;;;;8422165;28;19939;-72
2022/08/25 19:34:53;;;;;;;;;;;27.80;99.30;;;;;;8408461;28;20054;-73
2022/08/25 19:38:57;;;;;;;;;;;27.80;99.40;;;;;;8413973;28;19920;-73
2022/08/25 19:42:59;;;;;;;;;;;27.70;99.80;;;;;;8419475;28;20418;-73
2022/08/25 19:47:00;;;;;;;;;;;27.60;99.90;;;;;;8431561;28;19920;-72
2022/08/25 19:51:02;;;;;;;;;;;27.40;99.90;;;;;;8434192;27;23582;-72
2022/08/25 19:55:04;;;;;;;;;;;27.10;99.90;;;;;;8271561;28;19925;-72
2022/08/25 19:59:06;;;;;;;;;;;26.90;99.90;;;;;;8323839;28;19925;-72
2022/08/25 20:03:08;;;;;;;;;;;26.80;99.90;;;;;;8313941;28;19930;-72
2022/08/25 20:07:10;;;;;;;;;;;26.70;99.90;;;;;;8264171;28;20679;-72
2022/08/25 20:11:13;;;;;;;;;;;26.60;99.90;;;;;;8264371;28;20460;-73
2022/08/25 20:15:15;;;;;;;;;;;26.60;99.90;;;;;;8257569;28;19929;-73
2022/08/25 20:19:17;;;;;;;;;;;26.50;99.90;;;;;;8267265;28;19929;-73
2022/08/25 20:27:50;;;;;;;;;;;26.40;99.90;;;;;;8257360;28;19967;-72
2022/08/25 20:31:51;;;;;;;;;;;26.40;99.90;;;;;;8252853;28;20290;-72
2022/08/25 20:35:53;;;;;;;;;;;26.30;99.90;;;;;;8319528;28;20257;-73
2022/08/25 20:39:55;;;;;;;;;;;26.20;99.90;;;;;;8256659;28;20321;-72
2022/08/25 20:43:57;;;;;;;;;;;26.20;99.90;;;;;;8259128;28;19921;-73
2022/08/25 20:47:59;;;;;;;;;;;26.10;99.90;;;;;;8257839;28;20735;-73
2022/08/25 20:52:01;;;;;;;;;;;26.00;99.90;;;;;;8286851;28;19923;-72
2022/08/25 20:56:09;;;;;;;;;;;26.00;99.90;;;;;;8407282;28;19988;-72
2022/08/25 21:00:11;;;;;;;;;;;25.90;99.90;;;;;;8429539;28;19924;-73
2022/08/25 21:04:15;;;;;;;;;;;25.80;99.90;;;;;;8440872;27;19928;-73
2022/08/25 21:08:16;;;;;;;;;;;25.70;99.90;;;;;;8432514;28;20302;-72
2022/08/25 21:12:18;;;;;;;;;;;25.60;99.90;;;;;;8436673;28;19935;-73
2022/08/25 21:16:22;;;;;;;;;;;25.60;99.90;;;;;;8441060;28;20259;-72
2022/08/25 21:20:24;;;;;;;;;;;25.50;99.90;;;;;;8440987;28;20241;-72
2022/08/25 21:24:27;;;;;;;;;;;25.40;99.90;;;;;;8430897;28;19927;-73
2022/08/25 21:28:28;;;;;;;;;;;25.40;99.90;;;;;;8440364;28;20371;-72
2022/08/25 21:32:30;;;;;;;;;;;25.30;99.90;;;;;;8437852;27;19927;-73
2022/08/25 21:36:31;;;;;;;;;;;25.20;99.90;;;;;;8442466;28;20031;-72
2022/08/25 21:40:37;;;;;;;;;;;25.10;99.90;;;;;;8444967;27;19920;-72
2022/08/25 21:44:38;;;;;;;;;;;25.10;99.90;;;;;;8436354;28;19927;-72
2022/08/25 21:48:40;;;;;;;;;;;25.10;99.90;;;;;;8428581;28;19923;-72
2022/08/25 21:52:42;;;;;;;;;;;25.10;99.90;;;;;;8360856;28;19978;-72
2022/08/25 21:56:52;;;;;;;;;;;25.00;99.90;;;;;;8278270;28;19937;-72
2022/08/25 22:00:53;;;;;;;;;;;24.90;99.90;;;;;;8271605;28;19929;-72
2022/08/25 22:04:55;;;;;;;;;;;24.90;99.90;;;;;;8282193;28;19925;-73
2022/08/25 22:08:57;;;;;;;;;;;24.90;99.90;;;;;;8272338;28;19964;-73
2022/08/25 22:12:59;;;;;;;;;;;24.90;99.90;;;;;;8270758;28;19925;-73
2022/08/25 22:17:01;;;;;;;;;;;24.80;99.90;;;;;;8331607;28;19960;-72
2022/08/25 22:21:03;;;;;;;;;;;24.80;99.90;;;;;;8273461;28;20265;-72
2022/08/25 22:25:07;;;;;;;;;;;24.80;99.90;;;;;;8346973;28;19922;-72
2022/08/25 22:29:09;;;;;;;;;;;24.80;99.90;;;;;;8282768;28;19929;-73
2022/08/25 22:33:11;;;;;;;;;;;24.80;99.90;;;;;;8283009;28;20292;-73
2022/08/25 22:37:16;;;;;;;;;;;24.80;99.90;;;;;;8273052;28;20284;-72
2022/08/25 22:41:18;;;;;;;;;;;24.60;99.90;;;;;;8282984;28;19930;-73
2022/08/25 22:45:21;;;;;;;;;;;24.60;99.90;;;;;;8282870;28;19927;-72
2022/08/25 22:49:26;;;;;;;;;;;24.50;99.90;;;;;;8279500;28;19929;-73
2022/08/25 22:53:28;;;;;;;;;;;24.50;99.90;;;;;;8378000;28;19920;-72
2022/08/25 22:57:30;;;;;;;;;;;24.40;99.90;;;;;;8435045;28;19919;-72
2022/08/25 23:01:31;;;;;;;;;;;24.40;99.90;;;;;;8450917;28;19927;-73
2022/08/25 23:05:34;;;;;;;;;;;24.30;99.90;;;;;;8450915;27;19928;-72
2022/08/25 23:09:35;;;;;;;;;;;24.20;99.90;;;;;;8433796;28;20379;-73
2022/08/25 23:13:38;;;;;;;;;;;24.10;99.90;;;;;;8436644;28;19934;-73
2022/08/25 23:17:39;;;;;;;;;;;24.00;99.90;;;;;;8457494;27;19946;-73
2022/08/25 23:26:02;;;;;;;;;;;23.90;99.90;;;;;;8439594;28;19973;-74
2022/08/25 23:30:04;;;;;;;;;;;23.90;99.90;;;;;;8445758;28;19919;-73
2022/08/25 23:34:06;;;;;;;;;;;23.90;99.90;;;;;;8429635;27;20402;-73
2022/08/25 23:38:09;;;;;;;;;;;23.80;99.90;;;;;;8428547;28;20048;-73
2022/08/25 23:42:11;;;;;;;;;;;23.80;99.90;;;;;;8424658;27;19927;-73
2022/08/25 23:46:17;;;;;;;;;;;23.80;99.90;;;;;;8436205;28;19920;-73
